sensor_id;sensor_type;location;lat;lon;timestamp;P1;durP1;ratioP1;P2;durP2;ratioP2
70457;SDS011;57919;56.194;95.716;2023-05-20T00:00:37;12.37;;;4.27;;
70457;SDS011;57919;56.194;95.716;2023-05-20T00:10:39;15.00;;;4.77;;
70457;SDS011;57919;56.194;95.716;2023-05-20T00:20:41;11.95;;;5.32;;
70457;SDS011;57919;56.194;95.716;2023-05-20T00:30:44;14.00;;;5.10;;
70457;SDS011;57919;56.194;95.716;2023-05-20T00:40:46;17.83;;;5.87;;
70457;SDS011;57919;56.194;95.716;2023-05-20T00:50:48;14.13;;;6.70;;
70457;SDS011;57919;56.194;95.716;2023-05-20T01:00:50;16.43;;;8.73;;
70457;SDS011;57919;56.194;95.716;2023-05-20T01:11:37;22.70;;;10.85;;
70457;SDS011;57919;56.194;95.716;2023-05-20T01:21:26;26.03;;;11.73;;
70457;SDS011;57919;56.194;95.716;2023-05-20T01:31:31;18.37;;;10.43;;
70457;SDS011;57919;56.194;95.716;2023-05-20T01:41:38;18.40;;;8.57;;
70457;SDS011;57919;56.194;95.716;2023-05-20T01:51:41;20.93;;;10.53;;
70457;SDS011;57919;56.194;95.716;2023-05-20T02:01:44;16.10;;;9.18;;
70457;SDS011;57919;56.194;95.716;2023-05-20T02:11:49;20.23;;;9.70;;
70457;SDS011;57919;56.194;95.716;2023-05-20T02:21:51;13.23;;;8.03;;
70457;SDS011;57919;56.194;95.716;2023-05-20T02:31:53;14.50;;;7.20;;
70457;SDS011;57919;56.194;95.716;2023-05-20T02:41:55;32.73;;;9.87;;
70457;SDS011;57919;56.194;95.716;2023-05-20T02:51:58;13.05;;;6.85;;
70457;SDS011;57919;56.194;95.716;2023-05-20T03:02:00;24.77;;;11.47;;
70457;SDS011;57919;56.194;95.716;2023-05-20T03:12:03;13.57;;;4.40;;
70457;SDS011;57919;56.194;95.716;2023-05-20T03:22:05;9.73;;;4.10;;
70457;SDS011;57919;56.194;95.716;2023-05-20T03:32:07;34.80;;;19.27;;
70457;SDS011;57919;56.194;95.716;2023-05-20T03:42:10;17.75;;;8.23;;
70457;SDS011;57919;56.194;95.716;2023-05-20T03:52:12;6.53;;;2.23;;
70457;SDS011;57919;56.194;95.716;2023-05-20T04:02:13;4.27;;;0.80;;
70457;SDS011;57919;56.194;95.716;2023-05-20T04:12:16;4.23;;;1.40;;
70457;SDS011;57919;56.194;95.716;2023-05-20T04:22:19;4.10;;;1.63;;
70457;SDS011;57919;56.194;95.716;2023-05-20T04:32:21;3.88;;;1.00;;
70457;SDS011;57919;56.194;95.716;2023-05-20T04:42:24;2.70;;;0.87;;
70457;SDS011;57919;56.194;95.716;2023-05-20T04:52:26;3.37;;;1.00;;
70457;SDS011;57919;56.194;95.716;2023-05-20T05:02:28;3.87;;;1.10;;
70457;SDS011;57919;56.194;95.716;2023-05-20T05:12:30;2.67;;;0.70;;
70457;SDS011;57919;56.194;95.716;2023-05-20T05:22:32;3.38;;;1.30;;
70457;SDS011;57919;56.194;95.716;2023-05-20T05:32:37;3.50;;;1.00;;
70457;SDS011;57919;56.194;95.716;2023-05-20T05:42:40;3.90;;;1.07;;
70457;SDS011;57919;56.194;95.716;2023-05-20T05:52:42;3.10;;;0.90;;
70457;SDS011;57919;56.194;95.716;2023-05-20T06:02:45;8.77;;;3.10;;
70457;SDS011;57919;56.194;95.716;2023-05-20T06:12:59;3.20;;;1.08;;
70457;SDS011;57919;56.194;95.716;2023-05-20T06:23:02;4.83;;;1.50;;
70457;SDS011;57919;56.194;95.716;2023-05-20T06:33:13;4.23;;;1.30;;
70457;SDS011;57919;56.194;95.716;2023-05-20T06:43:15;4.47;;;2.33;;
70457;SDS011;57919;56.194;95.716;2023-05-20T06:53:46;2.10;;;0.80;;
70457;SDS011;57919;56.194;95.716;2023-05-20T07:03:49;3.55;;;1.02;;
70457;SDS011;57919;56.194;95.716;2023-05-20T07:13:52;9.30;;;4.60;;
70457;SDS011;57919;56.194;95.716;2023-05-20T07:23:54;8.87;;;1.60;;
70457;SDS011;57919;56.194;95.716;2023-05-20T07:33:56;4.57;;;2.20;;
70457;SDS011;57919;56.194;95.716;2023-05-20T07:44:00;8.70;;;2.50;;
70457;SDS011;57919;56.194;95.716;2023-05-20T07:54:07;5.50;;;2.28;;
70457;SDS011;57919;56.194;95.716;2023-05-20T08:04:09;13.47;;;2.60;;
70457;SDS011;57919;56.194;95.716;2023-05-20T08:14:12;4.90;;;1.77;;
70457;SDS011;57919;56.194;95.716;2023-05-20T08:24:17;4.37;;;1.77;;
70457;SDS011;57919;56.194;95.716;2023-05-20T08:34:20;7.00;;;3.37;;
70457;SDS011;57919;56.194;95.716;2023-05-20T08:44:22;5.00;;;2.30;;
70457;SDS011;57919;56.194;95.716;2023-05-20T08:54:29;4.43;;;2.10;;
70457;SDS011;57919;56.194;95.716;2023-05-20T09:04:53;8.13;;;2.60;;
70457;SDS011;57919;56.194;95.716;2023-05-20T09:14:55;5.23;;;2.20;;
70457;SDS011;57919;56.194;95.716;2023-05-20T09:24:57;341.23;;;280.87;;
70457;SDS011;57919;56.194;95.716;2023-05-20T09:34:59;21.88;;;17.50;;
70457;SDS011;57919;56.194;95.716;2023-05-20T09:45:01;10.83;;;5.50;;
70457;SDS011;57919;56.194;95.716;2023-05-20T09:55:05;9.73;;;3.00;;
70457;SDS011;57919;56.194;95.716;2023-05-20T10:05:11;12.97;;;6.00;;
70457;SDS011;57919;56.194;95.716;2023-05-20T10:25:38;9.63;;;6.22;;
70457;SDS011;57919;56.194;95.716;2023-05-20T10:35:50;15.53;;;9.20;;
70457;SDS011;57919;56.194;95.716;2023-05-20T10:45:54;8.40;;;4.50;;
70457;SDS011;57919;56.194;95.716;2023-05-20T10:55:57;8.80;;;3.80;;
70457;SDS011;57919;56.194;95.716;2023-05-20T11:05:59;15.07;;;4.00;;
70457;SDS011;57919;56.194;95.716;2023-05-20T11:16:01;10.43;;;4.47;;
70457;SDS011;57919;56.194;95.716;2023-05-20T11:26:04;13.33;;;3.47;;
70457;SDS011;57919;56.194;95.716;2023-05-20T11:36:08;29.00;;;10.87;;
70457;SDS011;57919;56.194;95.716;2023-05-20T11:46:10;81.23;;;57.90;;
70457;SDS011;57919;56.194;95.716;2023-05-20T11:56:12;16.73;;;6.53;;
70457;SDS011;57919;56.194;95.716;2023-05-20T12:06:15;8.98;;;4.18;;
70457;SDS011;57919;56.194;95.716;2023-05-20T12:16:17;24.63;;;7.57;;
70457;SDS011;57919;56.194;95.716;2023-05-20T12:26:19;18.07;;;5.70;;
70457;SDS011;57919;56.194;95.716;2023-05-20T12:36:22;15.97;;;6.53;;
70457;SDS011;57919;56.194;95.716;2023-05-20T12:46:24;23.60;;;12.33;;
70457;SDS011;57919;56.194;95.716;2023-05-20T12:56:26;60.33;;;27.65;;
70457;SDS011;57919;56.194;95.716;2023-05-20T13:06:27;51.93;;;24.50;;
70457;SDS011;57919;56.194;95.716;2023-05-20T13:16:30;49.17;;;24.40;;
70457;SDS011;57919;56.194;95.716;2023-05-20T13:26:31;58.17;;;21.77;;
70457;SDS011;57919;56.194;95.716;2023-05-20T13:36:33;65.27;;;39.13;;
70457;SDS011;57919;56.194;95.716;2023-05-20T13:46:35;116.72;;;71.90;;
70457;SDS011;57919;56.194;95.716;2023-05-20T13:56:38;119.13;;;73.40;;
70457;SDS011;57919;56.194;95.716;2023-05-20T14:06:40;127.77;;;77.87;;
70457;SDS011;57919;56.194;95.716;2023-05-20T14:16:42;160.20;;;84.63;;
70457;SDS011;57919;56.194;95.716;2023-05-20T14:26:44;192.00;;;102.60;;
70457;SDS011;57919;56.194;95.716;2023-05-20T14:36:46;150.00;;;78.07;;
70457;SDS011;57919;56.194;95.716;2023-05-20T14:46:48;108.97;;;59.83;;
70457;SDS011;57919;56.194;95.716;2023-05-20T14:56:50;131.13;;;64.73;;
70457;SDS011;57919;56.194;95.716;2023-05-20T15:06:54;133.23;;;64.33;;
70457;SDS011;57919;56.194;95.716;2023-05-20T15:16:56;133.93;;;64.63;;
70457;SDS011;57919;56.194;95.716;2023-05-20T15:26:58;180.35;;;87.63;;
70457;SDS011;57919;56.194;95.716;2023-05-20T15:36:59;244.73;;;98.70;;
70457;SDS011;57919;56.194;95.716;2023-05-20T15:47:01;214.70;;;93.70;;
70457;SDS011;57919;56.194;95.716;2023-05-20T15:57:06;179.57;;;75.17;;
70457;SDS011;57919;56.194;95.716;2023-05-20T16:07:07;146.40;;;58.87;;
70457;SDS011;57919;56.194;95.716;2023-05-20T16:17:09;237.65;;;100.32;;
70457;SDS011;57919;56.194;95.716;2023-05-20T16:27:12;249.87;;;103.90;;
70457;SDS011;57919;56.194;95.716;2023-05-20T16:37:14;251.13;;;105.67;;
70457;SDS011;57919;56.194;95.716;2023-05-20T16:47:16;238.97;;;102.57;;
70457;SDS011;57919;56.194;95.716;2023-05-20T16:57:18;252.07;;;101.37;;
70457;SDS011;57919;56.194;95.716;2023-05-20T17:07:23;140.63;;;60.35;;
70457;SDS011;57919;56.194;95.716;2023-05-20T17:17:25;144.07;;;56.87;;
70457;SDS011;57919;56.194;95.716;2023-05-20T17:27:27;149.90;;;59.40;;
70457;SDS011;57919;56.194;95.716;2023-05-20T17:37:29;216.27;;;85.37;;
70457;SDS011;57919;56.194;95.716;2023-05-20T17:47:31;237.17;;;98.30;;
70457;SDS011;57919;56.194;95.716;2023-05-20T17:57:33;166.43;;;66.18;;
70457;SDS011;57919;56.194;95.716;2023-05-20T18:07:35;130.40;;;48.77;;
70457;SDS011;57919;56.194;95.716;2023-05-20T18:17:37;85.87;;;36.17;;
70457;SDS011;57919;56.194;95.716;2023-05-20T18:27:39;77.13;;;32.60;;
70457;SDS011;57919;56.194;95.716;2023-05-20T18:37:42;46.07;;;19.27;;
70457;SDS011;57919;56.194;95.716;2023-05-20T18:47:43;25.50;;;12.40;;
70457;SDS011;57919;56.194;95.716;2023-05-20T18:57:46;23.90;;;8.93;;
70457;SDS011;57919;56.194;95.716;2023-05-20T19:07:48;16.63;;;6.37;;
70457;SDS011;57919;56.194;95.716;2023-05-20T19:17:49;16.40;;;8.63;;
70457;SDS011;57919;56.194;95.716;2023-05-20T19:27:51;32.20;;;7.40;;
70457;SDS011;57919;56.194;95.716;2023-05-20T19:37:53;14.63;;;6.18;;
70457;SDS011;57919;56.194;95.716;2023-05-20T19:47:55;13.93;;;5.17;;
70457;SDS011;57919;56.194;95.716;2023-05-20T19:57:57;14.67;;;5.67;;
70457;SDS011;57919;56.194;95.716;2023-05-20T20:07:59;16.77;;;5.95;;
70457;SDS011;57919;56.194;95.716;2023-05-20T20:18:01;19.37;;;6.90;;
70457;SDS011;57919;56.194;95.716;2023-05-20T20:28:06;18.13;;;7.53;;
70457;SDS011;57919;56.194;95.716;2023-05-20T20:38:09;15.70;;;4.67;;
70457;SDS011;57919;56.194;95.716;2023-05-20T20:48:12;12.27;;;4.80;;
70457;SDS011;57919;56.194;95.716;2023-05-20T20:58:17;13.30;;;4.50;;
70457;SDS011;57919;56.194;95.716;2023-05-20T21:08:19;10.90;;;3.87;;
70457;SDS011;57919;56.194;95.716;2023-05-20T21:18:22;9.80;;;3.53;;
70457;SDS011;57919;56.194;95.716;2023-05-20T21:28:24;18.33;;;6.63;;
70457;SDS011;57919;56.194;95.716;2023-05-20T21:38:26;15.20;;;5.50;;
70457;SDS011;57919;56.194;95.716;2023-05-20T21:48:28;15.70;;;5.38;;
70457;SDS011;57919;56.194;95.716;2023-05-20T21:58:29;13.40;;;5.43;;
70457;SDS011;57919;56.194;95.716;2023-05-20T22:08:31;10.70;;;3.70;;
70457;SDS011;57919;56.194;95.716;2023-05-20T22:18:36;19.05;;;7.15;;
70457;SDS011;57919;56.194;95.716;2023-05-20T22:28:38;6.40;;;2.70;;
70457;SDS011;57919;56.194;95.716;2023-05-20T22:38:40;7.25;;;3.10;;
70457;SDS011;57919;56.194;95.716;2023-05-20T22:48:42;11.03;;;2.90;;
70457;SDS011;57919;56.194;95.716;2023-05-20T22:58:44;5.60;;;2.27;;
70457;SDS011;57919;56.194;95.716;2023-05-20T23:08:46;7.47;;;2.63;;
70457;SDS011;57919;56.194;95.716;2023-05-20T23:18:48;6.33;;;2.47;;
70457;SDS011;57919;56.194;95.716;2023-05-20T23:28:50;6.40;;;2.60;;
70457;SDS011;57919;56.194;95.716;2023-05-20T23:38:52;7.90;;;2.70;;
70457;SDS011;57919;56.194;95.716;2023-05-20T23:48:54;11.27;;;2.60;;
70457;SDS011;57919;56.194;95.716;2023-05-20T23:58:56;11.63;;;3.75;;
